sensor_id;sensor_type;location;lat;lon;timestamp;temperature;humidity
11399;DHT22;5755;48.116;11.608;2023-10-13T00:02:04;18.00;26.00
11399;DHT22;5755;48.116;11.608;2023-10-13T00:04:32;17.90;26.10
11399;DHT22;5755;48.116;11.608;2023-10-13T00:07:02;17.90;27.00
11399;DHT22;5755;48.116;11.608;2023-10-13T00:09:30;17.80;27.40
11399;DHT22;5755;48.116;11.608;2023-10-13T00:11:59;17.70;27.60
11399;DHT22;5755;48.116;11.608;2023-10-13T00:14:26;17.60;29.30
11399;DHT22;5755;48.116;11.608;2023-10-13T00:17:01;17.60;30.00
11399;DHT22;5755;48.116;11.608;2023-10-13T00:19:31;17.50;30.00
11399;DHT22;5755;48.116;11.608;2023-10-13T00:22:06;17.40;29.90
11399;DHT22;5755;48.116;11.608;2023-10-13T00:24:36;17.30;29.80
11399;DHT22;5755;48.116;11.608;2023-10-13T00:27:09;17.10;29.70
11399;DHT22;5755;48.116;11.608;2023-10-13T00:29:50;17.10;31.50
11399;DHT22;5755;48.116;11.608;2023-10-13T00:32:31;17.20;31.50
11399;DHT22;5755;48.116;11.608;2023-10-13T00:35:03;17.20;30.60
11399;DHT22;5755;48.116;11.608;2023-10-13T00:37:31;17.10;31.00
11399;DHT22;5755;48.116;11.608;2023-10-13T00:40:08;17.10;31.20
11399;DHT22;5755;48.116;11.608;2023-10-13T00:42:56;17.10;31.90
11399;DHT22;5755;48.116;11.608;2023-10-13T00:45:44;17.10;32.50
11399;DHT22;5755;48.116;11.608;2023-10-13T00:48:16;17.10;32.20
11399;DHT22;5755;48.116;11.608;2023-10-13T00:50:43;17.10;32.30
11399;DHT22;5755;48.116;11.608;2023-10-13T00:53:12;17.00;31.90
11399;DHT22;5755;48.116;11.608;2023-10-13T00:55:39;17.00;31.90
11399;DHT22;5755;48.116;11.608;2023-10-13T00:58:07;17.00;32.90
11399;DHT22;5755;48.116;11.608;2023-10-13T01:00:38;17.00;32.20
11399;DHT22;5755;48.116;11.608;2023-10-13T01:03:13;17.00;32.00
11399;DHT22;5755;48.116;11.608;2023-10-13T01:05:42;16.90;32.20
11399;DHT22;5755;48.116;11.608;2023-10-13T01:08:08;16.80;31.90
11399;DHT22;5755;48.116;11.608;2023-10-13T01:10:37;16.70;32.00
11399;DHT22;5755;48.116;11.608;2023-10-13T01:13:03;16.60;32.10
11399;DHT22;5755;48.116;11.608;2023-10-13T01:15:30;16.50;32.30
11399;DHT22;5755;48.116;11.608;2023-10-13T01:18:06;16.50;33.50
11399;DHT22;5755;48.116;11.608;2023-10-13T01:20:37;16.40;33.10
11399;DHT22;5755;48.116;11.608;2023-10-13T01:23:11;16.30;33.50
11399;DHT22;5755;48.116;11.608;2023-10-13T01:25:43;16.20;33.70
11399;DHT22;5755;48.116;11.608;2023-10-13T01:28:10;16.30;34.70
11399;DHT22;5755;48.116;11.608;2023-10-13T01:30:41;16.30;35.20
11399;DHT22;5755;48.116;11.608;2023-10-13T01:33:08;16.30;36.00
11399;DHT22;5755;48.116;11.608;2023-10-13T01:35:36;16.20;34.90
11399;DHT22;5755;48.116;11.608;2023-10-13T01:38:08;16.20;36.20
11399;DHT22;5755;48.116;11.608;2023-10-13T01:40:35;16.20;38.20
11399;DHT22;5755;48.116;11.608;2023-10-13T01:43:02;16.20;39.30
11399;DHT22;5755;48.116;11.608;2023-10-13T01:45:30;16.10;40.00
11399;DHT22;5755;48.116;11.608;2023-10-13T01:47:57;16.10;39.50
11399;DHT22;5755;48.116;11.608;2023-10-13T01:50:24;16.00;41.80
11399;DHT22;5755;48.116;11.608;2023-10-13T01:52:55;16.00;41.70
11399;DHT22;5755;48.116;11.608;2023-10-13T01:55:38;16.00;41.70
11399;DHT22;5755;48.116;11.608;2023-10-13T01:58:09;15.90;42.00
11399;DHT22;5755;48.116;11.608;2023-10-13T02:00:40;15.80;41.90
11399;DHT22;5755;48.116;11.608;2023-10-13T02:03:09;15.70;41.00
11399;DHT22;5755;48.116;11.608;2023-10-13T02:05:41;15.70;40.60
11399;DHT22;5755;48.116;11.608;2023-10-13T02:08:13;15.70;40.70
11399;DHT22;5755;48.116;11.608;2023-10-13T02:10:44;15.80;43.00
11399;DHT22;5755;48.116;11.608;2023-10-13T02:13:13;15.90;42.50
11399;DHT22;5755;48.116;11.608;2023-10-13T02:15:45;15.80;43.60
11399;DHT22;5755;48.116;11.608;2023-10-13T02:18:14;15.70;43.60
11399;DHT22;5755;48.116;11.608;2023-10-13T02:20:46;15.70;43.90
11399;DHT22;5755;48.116;11.608;2023-10-13T02:23:20;15.70;44.90
11399;DHT22;5755;48.116;11.608;2023-10-13T02:25:48;15.60;44.60
11399;DHT22;5755;48.116;11.608;2023-10-13T02:28:18;15.60;43.60
11399;DHT22;5755;48.116;11.608;2023-10-13T02:30:47;15.60;43.30
11399;DHT22;5755;48.116;11.608;2023-10-13T02:33:16;15.50;43.00
11399;DHT22;5755;48.116;11.608;2023-10-13T02:35:47;15.50;42.30
11399;DHT22;5755;48.116;11.608;2023-10-13T02:38:20;15.50;42.40
11399;DHT22;5755;48.116;11.608;2023-10-13T02:40:55;15.50;42.50
11399;DHT22;5755;48.116;11.608;2023-10-13T02:43:22;15.50;43.20
11399;DHT22;5755;48.116;11.608;2023-10-13T02:45:54;15.50;44.20
11399;DHT22;5755;48.116;11.608;2023-10-13T02:48:25;15.40;45.90
11399;DHT22;5755;48.116;11.608;2023-10-13T02:50:56;15.30;46.90
11399;DHT22;5755;48.116;11.608;2023-10-13T02:53:27;15.30;48.40
11399;DHT22;5755;48.116;11.608;2023-10-13T02:55:55;15.20;50.00
11399;DHT22;5755;48.116;11.608;2023-10-13T02:58:30;15.10;51.10
11399;DHT22;5755;48.116;11.608;2023-10-13T03:01:06;15.00;51.40
11399;DHT22;5755;48.116;11.608;2023-10-13T03:03:46;14.90;51.30
11399;DHT22;5755;48.116;11.608;2023-10-13T03:06:16;14.80;51.20
11399;DHT22;5755;48.116;11.608;2023-10-13T03:08:43;14.80;51.20
11399;DHT22;5755;48.116;11.608;2023-10-13T03:11:11;14.80;51.20
11399;DHT22;5755;48.116;11.608;2023-10-13T03:13:39;14.70;51.10
11399;DHT22;5755;48.116;11.608;2023-10-13T03:16:14;14.60;51.00
11399;DHT22;5755;48.116;11.608;2023-10-13T03:18:43;14.50;50.90
11399;DHT22;5755;48.116;11.608;2023-10-13T03:21:18;14.50;51.20
11399;DHT22;5755;48.116;11.608;2023-10-13T03:23:54;14.40;50.80
11399;DHT22;5755;48.116;11.608;2023-10-13T03:26:23;14.50;50.90
11399;DHT22;5755;48.116;11.608;2023-10-13T03:28:49;14.50;51.90
11399;DHT22;5755;48.116;11.608;2023-10-13T03:31:19;14.40;50.90
11399;DHT22;5755;48.116;11.608;2023-10-13T03:33:51;14.40;50.80
11399;DHT22;5755;48.116;11.608;2023-10-13T03:36:24;14.20;50.70
11399;DHT22;5755;48.116;11.608;2023-10-13T03:39:22;14.20;52.80
11399;DHT22;5755;48.116;11.608;2023-10-13T03:41:56;14.20;53.40
11399;DHT22;5755;48.116;11.608;2023-10-13T03:44:24;14.10;53.50
11399;DHT22;5755;48.116;11.608;2023-10-13T03:46:56;14.20;53.20
11399;DHT22;5755;48.116;11.608;2023-10-13T03:49:23;14.20;54.40
11399;DHT22;5755;48.116;11.608;2023-10-13T03:51:50;14.10;54.60
11399;DHT22;5755;48.116;11.608;2023-10-13T03:54:20;14.00;54.70
11399;DHT22;5755;48.116;11.608;2023-10-13T03:56:47;14.00;55.60
11399;DHT22;5755;48.116;11.608;2023-10-13T03:59:19;14.00;55.70
11399;DHT22;5755;48.116;11.608;2023-10-13T04:01:46;13.90;56.80
11399;DHT22;5755;48.116;11.608;2023-10-13T04:04:24;13.90;57.40
11399;DHT22;5755;48.116;11.608;2023-10-13T04:07:00;13.80;57.50
11399;DHT22;5755;48.116;11.608;2023-10-13T04:09:46;13.70;57.70
11399;DHT22;5755;48.116;11.608;2023-10-13T04:12:32;13.60;58.60
11399;DHT22;5755;48.116;11.608;2023-10-13T04:15:18;13.50;59.20
11399;DHT22;5755;48.116;11.608;2023-10-13T04:17:49;13.60;60.30
11399;DHT22;5755;48.116;11.608;2023-10-13T04:20:16;13.60;62.10
11399;DHT22;5755;48.116;11.608;2023-10-13T04:22:58;13.50;60.90
11399;DHT22;5755;48.116;11.608;2023-10-13T04:25:44;13.40;60.60
11399;DHT22;5755;48.116;11.608;2023-10-13T04:28:34;13.40;61.20
11399;DHT22;5755;48.116;11.608;2023-10-13T04:31:02;13.40;60.80
11399;DHT22;5755;48.116;11.608;2023-10-13T04:33:38;13.50;61.40
11399;DHT22;5755;48.116;11.608;2023-10-13T04:36:17;13.60;59.90
11399;DHT22;5755;48.116;11.608;2023-10-13T04:38:48;13.60;59.90
11399;DHT22;5755;48.116;11.608;2023-10-13T04:41:26;13.50;59.70
11399;DHT22;5755;48.116;11.608;2023-10-13T04:43:57;13.50;60.10
11399;DHT22;5755;48.116;11.608;2023-10-13T04:46:31;13.50;60.70
11399;DHT22;5755;48.116;11.608;2023-10-13T04:49:35;13.60;58.90
11399;DHT22;5755;48.116;11.608;2023-10-13T04:52:15;13.60;58.50
11399;DHT22;5755;48.116;11.608;2023-10-13T04:55:05;13.50;58.60
11399;DHT22;5755;48.116;11.608;2023-10-13T04:57:59;13.40;60.10
11399;DHT22;5755;48.116;11.608;2023-10-13T05:00:40;13.30;60.60
11399;DHT22;5755;48.116;11.608;2023-10-13T05:03:36;13.30;60.40
11399;DHT22;5755;48.116;11.608;2023-10-13T05:06:46;13.30;59.00
11399;DHT22;5755;48.116;11.608;2023-10-13T05:09:30;13.30;58.90
11399;DHT22;5755;48.116;11.608;2023-10-13T05:12:15;13.30;58.40
11399;DHT22;5755;48.116;11.608;2023-10-13T05:14:59;13.30;58.40
11399;DHT22;5755;48.116;11.608;2023-10-13T05:17:43;13.30;58.90
11399;DHT22;5755;48.116;11.608;2023-10-13T05:20:29;13.30;58.50
11399;DHT22;5755;48.116;11.608;2023-10-13T05:23:13;13.40;58.60
11399;DHT22;5755;48.116;11.608;2023-10-13T05:26:01;13.20;58.80
11399;DHT22;5755;48.116;11.608;2023-10-13T05:28:46;13.20;57.60
11399;DHT22;5755;48.116;11.608;2023-10-13T05:31:30;13.20;58.90
11399;DHT22;5755;48.116;11.608;2023-10-13T05:34:14;13.20;60.50
11399;DHT22;5755;48.116;11.608;2023-10-13T05:37:00;13.30;59.30
11399;DHT22;5755;48.116;11.608;2023-10-13T05:39:44;13.10;59.80
11399;DHT22;5755;48.116;11.608;2023-10-13T05:42:28;13.20;61.10
11399;DHT22;5755;48.116;11.608;2023-10-13T05:45:12;13.10;60.40
11399;DHT22;5755;48.116;11.608;2023-10-13T05:48:19;13.10;59.90
11399;DHT22;5755;48.116;11.608;2023-10-13T05:51:00;13.20;59.40
11399;DHT22;5755;48.116;11.608;2023-10-13T05:53:42;13.10;59.30
11399;DHT22;5755;48.116;11.608;2023-10-13T05:56:27;13.10;58.60
11399;DHT22;5755;48.116;11.608;2023-10-13T05:59:11;13.20;58.50
11399;DHT22;5755;48.116;11.608;2023-10-13T06:01:55;13.10;58.50
11399;DHT22;5755;48.116;11.608;2023-10-13T06:04:39;13.20;58.50
11399;DHT22;5755;48.116;11.608;2023-10-13T06:07:23;13.30;58.00
11399;DHT22;5755;48.116;11.608;2023-10-13T06:10:09;13.30;56.10
11399;DHT22;5755;48.116;11.608;2023-10-13T06:12:53;13.30;55.90
11399;DHT22;5755;48.116;11.608;2023-10-13T06:15:37;13.40;55.10
11399;DHT22;5755;48.116;11.608;2023-10-13T06:18:21;13.60;56.10
11399;DHT22;5755;48.116;11.608;2023-10-13T06:21:05;13.70;55.60
11399;DHT22;5755;48.116;11.608;2023-10-13T06:23:49;13.80;52.70
11399;DHT22;5755;48.116;11.608;2023-10-13T06:26:35;13.90;52.10
11399;DHT22;5755;48.116;11.608;2023-10-13T06:29:20;13.90;54.40
11399;DHT22;5755;48.116;11.608;2023-10-13T06:31:47;14.00;53.80
11399;DHT22;5755;48.116;11.608;2023-10-13T06:34:14;14.10;53.50
11399;DHT22;5755;48.116;11.608;2023-10-13T06:36:41;14.20;52.50
11399;DHT22;5755;48.116;11.608;2023-10-13T06:39:12;14.20;52.60
11399;DHT22;5755;48.116;11.608;2023-10-13T06:42:02;14.30;53.90
11399;DHT22;5755;48.116;11.608;2023-10-13T06:44:29;14.30;51.50
11399;DHT22;5755;48.116;11.608;2023-10-13T06:46:58;14.30;50.70
11399;DHT22;5755;48.116;11.608;2023-10-13T06:49:25;14.30;50.70
11399;DHT22;5755;48.116;11.608;2023-10-13T06:51:54;14.30;50.70
11399;DHT22;5755;48.116;11.608;2023-10-13T06:54:26;14.30;50.70
11399;DHT22;5755;48.116;11.608;2023-10-13T06:56:54;14.40;50.80
11399;DHT22;5755;48.116;11.608;2023-10-13T06:59:22;14.50;52.80
11399;DHT22;5755;48.116;11.608;2023-10-13T07:01:52;14.70;53.70
11399;DHT22;5755;48.116;11.608;2023-10-13T07:04:19;14.80;54.50
11399;DHT22;5755;48.116;11.608;2023-10-13T07:06:47;14.90;51.30
11399;DHT22;5755;48.116;11.608;2023-10-13T07:09:15;15.10;51.50
11399;DHT22;5755;48.116;11.608;2023-10-13T07:12:05;15.30;51.70
11399;DHT22;5755;48.116;11.608;2023-10-13T07:14:34;15.40;44.20
11399;DHT22;5755;48.116;11.608;2023-10-13T07:17:04;15.50;44.30
11399;DHT22;5755;48.116;11.608;2023-10-13T07:19:33;15.50;45.30
11399;DHT22;5755;48.116;11.608;2023-10-13T07:22:01;15.60;43.80
11399;DHT22;5755;48.116;11.608;2023-10-13T07:24:45;15.60;43.60
11399;DHT22;5755;48.116;11.608;2023-10-13T07:27:14;15.70;43.60
11399;DHT22;5755;48.116;11.608;2023-10-13T07:29:50;15.90;44.20
11399;DHT22;5755;48.116;11.608;2023-10-13T07:32:22;15.90;41.30
11399;DHT22;5755;48.116;11.608;2023-10-13T07:34:53;16.10;40.30
11399;DHT22;5755;48.116;11.608;2023-10-13T07:37:22;16.20;39.20
11399;DHT22;5755;48.116;11.608;2023-10-13T07:39:53;16.30;38.70
11399;DHT22;5755;48.116;11.608;2023-10-13T07:42:23;16.40;38.80
11399;DHT22;5755;48.116;11.608;2023-10-13T07:44:57;16.40;39.30
11399;DHT22;5755;48.116;11.608;2023-10-13T07:47:24;16.50;39.60
11399;DHT22;5755;48.116;11.608;2023-10-13T07:49:53;16.60;39.20
11399;DHT22;5755;48.116;11.608;2023-10-13T07:52:22;16.70;38.80
11399;DHT22;5755;48.116;11.608;2023-10-13T07:55:03;16.80;37.60
11399;DHT22;5755;48.116;11.608;2023-10-13T07:57:37;16.90;35.50
11399;DHT22;5755;48.116;11.608;2023-10-13T08:00:20;17.10;36.30
11399;DHT22;5755;48.116;11.608;2023-10-13T08:02:58;17.10;35.30
11399;DHT22;5755;48.116;11.608;2023-10-13T08:05:51;17.30;33.80
11399;DHT22;5755;48.116;11.608;2023-10-13T08:08:24;17.40;32.90
11399;DHT22;5755;48.116;11.608;2023-10-13T08:11:00;17.60;30.00
11399;DHT22;5755;48.116;11.608;2023-10-13T08:13:34;17.80;29.00
11399;DHT22;5755;48.116;11.608;2023-10-13T08:16:04;18.00;29.00
11399;DHT22;5755;48.116;11.608;2023-10-13T08:18:34;18.20;26.70
11399;DHT22;5755;48.116;11.608;2023-10-13T08:21:07;18.30;27.30
11399;DHT22;5755;48.116;11.608;2023-10-13T08:23:42;18.50;27.40
11399;DHT22;5755;48.116;11.608;2023-10-13T08:26:27;18.60;26.40
11399;DHT22;5755;48.116;11.608;2023-10-13T08:29:04;18.80;27.10
11399;DHT22;5755;48.116;11.608;2023-10-13T08:31:47;19.10;24.10
11399;DHT22;5755;48.116;11.608;2023-10-13T08:34:36;19.20;24.10
11399;DHT22;5755;48.116;11.608;2023-10-13T08:37:25;19.30;23.90
11399;DHT22;5755;48.116;11.608;2023-10-13T08:39:59;19.40;23.00
11399;DHT22;5755;48.116;11.608;2023-10-13T08:42:40;19.50;22.50
11399;DHT22;5755;48.116;11.608;2023-10-13T08:45:18;19.80;22.90
11399;DHT22;5755;48.116;11.608;2023-10-13T08:48:10;20.10;22.20
11399;DHT22;5755;48.116;11.608;2023-10-13T08:50:43;20.60;20.00
11399;DHT22;5755;48.116;11.608;2023-10-13T08:53:18;20.80;21.00
11399;DHT22;5755;48.116;11.608;2023-10-13T08:55:54;20.90;18.50
11399;DHT22;5755;48.116;11.608;2023-10-13T08:58:31;21.00;20.10
11399;DHT22;5755;48.116;11.608;2023-10-13T09:01:17;21.30;21.30
11399;DHT22;5755;48.116;11.608;2023-10-13T09:04:02;21.70;18.60
11399;DHT22;5755;48.116;11.608;2023-10-13T09:06:45;22.30;16.90
11399;DHT22;5755;48.116;11.608;2023-10-13T09:09:23;23.40;13.20
11399;DHT22;5755;48.116;11.608;2023-10-13T09:12:01;25.20;11.10
11399;DHT22;5755;48.116;11.608;2023-10-13T09:14:35;26.80;9.30
11399;DHT22;5755;48.116;11.608;2023-10-13T09:17:06;27.90;4.20
11399;DHT22;5755;48.116;11.608;2023-10-13T09:19:47;29.20;2.40
11399;DHT22;5755;48.116;11.608;2023-10-13T09:22:21;29.90;2.20
11399;DHT22;5755;48.116;11.608;2023-10-13T09:24:57;30.80;1.80
11399;DHT22;5755;48.116;11.608;2023-10-13T09:27:29;30.90;1.00
11399;DHT22;5755;48.116;11.608;2023-10-13T09:29:56;30.60;1.00
11399;DHT22;5755;48.116;11.608;2023-10-13T09:32:23;31.00;1.00
11399;DHT22;5755;48.116;11.608;2023-10-13T09:34:50;31.60;1.00
11399;DHT22;5755;48.116;11.608;2023-10-13T09:37:19;31.80;1.00
11399;DHT22;5755;48.116;11.608;2023-10-13T09:39:46;31.60;1.00
11399;DHT22;5755;48.116;11.608;2023-10-13T09:42:18;31.90;1.00
11399;DHT22;5755;48.116;11.608;2023-10-13T09:44:44;32.10;1.00
11399;DHT22;5755;48.116;11.608;2023-10-13T09:47:21;32.00;1.00
11399;DHT22;5755;48.116;11.608;2023-10-13T09:50:01;32.00;1.00
11399;DHT22;5755;48.116;11.608;2023-10-13T09:52:31;32.20;1.00
11399;DHT22;5755;48.116;11.608;2023-10-13T09:55:11;32.00;1.00
11399;DHT22;5755;48.116;11.608;2023-10-13T09:57:43;31.30;1.00
11399;DHT22;5755;48.116;11.608;2023-10-13T10:00:12;31.20;1.00
11399;DHT22;5755;48.116;11.608;2023-10-13T10:02:55;30.90;1.00
11399;DHT22;5755;48.116;11.608;2023-10-13T10:05:26;30.60;1.00
11399;DHT22;5755;48.116;11.608;2023-10-13T10:07:56;30.50;1.00
11399;DHT22;5755;48.116;11.608;2023-10-13T10:13:15;30.10;1.00
11399;DHT22;5755;48.116;11.608;2023-10-13T10:15:47;30.20;1.00
11399;DHT22;5755;48.116;11.608;2023-10-13T10:18:20;30.30;1.00
11399;DHT22;5755;48.116;11.608;2023-10-13T10:20:49;30.40;1.00
11399;DHT22;5755;48.116;11.608;2023-10-13T10:23:27;29.90;1.00
11399;DHT22;5755;48.116;11.608;2023-10-13T10:26:09;29.80;1.00
11399;DHT22;5755;48.116;11.608;2023-10-13T10:28:40;29.70;1.00
11399;DHT22;5755;48.116;11.608;2023-10-13T10:31:08;29.30;1.20
11399;DHT22;5755;48.116;11.608;2023-10-13T10:33:38;29.50;1.00
11399;DHT22;5755;48.116;11.608;2023-10-13T10:36:07;29.50;1.00
11399;DHT22;5755;48.116;11.608;2023-10-13T10:38:51;29.60;1.00
11399;DHT22;5755;48.116;11.608;2023-10-13T10:41:25;29.90;1.00
11399;DHT22;5755;48.116;11.608;2023-10-13T10:43:55;29.90;1.00
11399;DHT22;5755;48.116;11.608;2023-10-13T10:46:26;29.60;1.00
11399;DHT22;5755;48.116;11.608;2023-10-13T10:48:55;29.70;1.00
11399;DHT22;5755;48.116;11.608;2023-10-13T10:51:28;29.30;1.00
11399;DHT22;5755;48.116;11.608;2023-10-13T10:53:57;29.20;1.00
11399;DHT22;5755;48.116;11.608;2023-10-13T10:56:36;28.80;1.00
11399;DHT22;5755;48.116;11.608;2023-10-13T10:59:04;28.30;1.00
11399;DHT22;5755;48.116;11.608;2023-10-13T11:01:32;28.20;1.00
11399;DHT22;5755;48.116;11.608;2023-10-13T11:04:09;28.00;1.00
11399;DHT22;5755;48.116;11.608;2023-10-13T11:06:47;27.80;1.00
11399;DHT22;5755;48.116;11.608;2023-10-13T11:09:14;27.70;1.00
11399;DHT22;5755;48.116;11.608;2023-10-13T11:11:46;27.50;1.00
11399;DHT22;5755;48.116;11.608;2023-10-13T11:14:22;27.40;1.00
11399;DHT22;5755;48.116;11.608;2023-10-13T11:16:52;27.30;1.50
11399;DHT22;5755;48.116;11.608;2023-10-13T11:19:21;27.20;1.00
11399;DHT22;5755;48.116;11.608;2023-10-13T11:21:53;27.10;1.00
11399;DHT22;5755;48.116;11.608;2023-10-13T11:24:21;27.10;1.00
11399;DHT22;5755;48.116;11.608;2023-10-13T11:26:48;27.00;1.00
11399;DHT22;5755;48.116;11.608;2023-10-13T11:29:16;26.90;1.00
11399;DHT22;5755;48.116;11.608;2023-10-13T11:31:46;26.90;1.00
11399;DHT22;5755;48.116;11.608;2023-10-13T11:34:19;26.60;1.00
11399;DHT22;5755;48.116;11.608;2023-10-13T11:36:46;26.60;1.70
11399;DHT22;5755;48.116;11.608;2023-10-13T11:39:14;26.60;1.00
11399;DHT22;5755;48.116;11.608;2023-10-13T11:41:48;26.50;1.00
11399;DHT22;5755;48.116;11.608;2023-10-13T11:44:20;26.40;1.00
11399;DHT22;5755;48.116;11.608;2023-10-13T11:47:08;26.50;1.00
11399;DHT22;5755;48.116;11.608;2023-10-13T11:49:58;26.50;1.00
11399;DHT22;5755;48.116;11.608;2023-10-13T11:52:25;26.50;1.00
11399;DHT22;5755;48.116;11.608;2023-10-13T11:54:56;26.50;1.80
11399;DHT22;5755;48.116;11.608;2023-10-13T11:57:23;26.50;1.00
11399;DHT22;5755;48.116;11.608;2023-10-13T11:59:50;26.40;1.00
11399;DHT22;5755;48.116;11.608;2023-10-13T12:02:21;26.50;1.00
11399;DHT22;5755;48.116;11.608;2023-10-13T12:05:06;26.40;1.00
11399;DHT22;5755;48.116;11.608;2023-10-13T12:07:42;26.20;1.00
11399;DHT22;5755;48.116;11.608;2023-10-13T12:10:19;26.20;1.10
11399;DHT22;5755;48.116;11.608;2023-10-13T12:13:14;26.30;1.00
11399;DHT22;5755;48.116;11.608;2023-10-13T12:15:43;26.40;1.00
11399;DHT22;5755;48.116;11.608;2023-10-13T12:18:18;26.40;1.00
11399;DHT22;5755;48.116;11.608;2023-10-13T12:20:47;26.30;1.00
11399;DHT22;5755;48.116;11.608;2023-10-13T12:23:15;26.30;1.00
11399;DHT22;5755;48.116;11.608;2023-10-13T12:25:44;26.30;1.20
11399;DHT22;5755;48.116;11.608;2023-10-13T12:28:23;26.30;1.00
11399;DHT22;5755;48.116;11.608;2023-10-13T12:30:53;26.30;1.00
11399;DHT22;5755;48.116;11.608;2023-10-13T12:33:23;26.30;1.00
11399;DHT22;5755;48.116;11.608;2023-10-13T12:35:56;26.40;1.40
11399;DHT22;5755;48.116;11.608;2023-10-13T12:38:56;26.30;2.40
11399;DHT22;5755;48.116;11.608;2023-10-13T12:41:42;26.20;1.40
11399;DHT22;5755;48.116;11.608;2023-10-13T12:44:26;26.30;1.70
11399;DHT22;5755;48.116;11.608;2023-10-13T12:47:10;26.20;1.00
11399;DHT22;5755;48.116;11.608;2023-10-13T12:49:54;26.20;1.00
11399;DHT22;5755;48.116;11.608;2023-10-13T12:52:38;26.10;1.00
11399;DHT22;5755;48.116;11.608;2023-10-13T12:55:05;26.10;1.00
11399;DHT22;5755;48.116;11.608;2023-10-13T12:57:37;26.10;1.00
11399;DHT22;5755;48.116;11.608;2023-10-13T13:00:12;26.10;1.00
11399;DHT22;5755;48.116;11.608;2023-10-13T13:02:59;26.00;1.00
11399;DHT22;5755;48.116;11.608;2023-10-13T13:05:26;26.00;1.50
11399;DHT22;5755;48.116;11.608;2023-10-13T13:07:57;25.90;1.20
11399;DHT22;5755;48.116;11.608;2023-10-13T13:10:23;26.00;1.20
11399;DHT22;5755;48.116;11.608;2023-10-13T13:13:04;26.00;1.00
11399;DHT22;5755;48.116;11.608;2023-10-13T13:15:31;26.00;1.00
11399;DHT22;5755;48.116;11.608;2023-10-13T13:17:58;25.90;1.20
11399;DHT22;5755;48.116;11.608;2023-10-13T13:20:35;25.90;1.60
11399;DHT22;5755;48.116;11.608;2023-10-13T13:23:04;25.90;1.90
11399;DHT22;5755;48.116;11.608;2023-10-13T13:25:31;25.80;1.90
11399;DHT22;5755;48.116;11.608;2023-10-13T13:27:59;25.80;1.00
11399;DHT22;5755;48.116;11.608;2023-10-13T13:30:32;25.80;1.60
11399;DHT22;5755;48.116;11.608;2023-10-13T13:33:00;25.70;2.00
11399;DHT22;5755;48.116;11.608;2023-10-13T13:35:36;25.70;2.60
11399;DHT22;5755;48.116;11.608;2023-10-13T13:38:03;25.70;1.80
11399;DHT22;5755;48.116;11.608;2023-10-13T13:40:37;25.60;2.00
11399;DHT22;5755;48.116;11.608;2023-10-13T13:43:04;25.60;1.50
11399;DHT22;5755;48.116;11.608;2023-10-13T13:45:33;25.70;1.00
11399;DHT22;5755;48.116;11.608;2023-10-13T13:48:07;25.60;1.00
11399;DHT22;5755;48.116;11.608;2023-10-13T13:50:41;25.60;1.20
11399;DHT22;5755;48.116;11.608;2023-10-13T13:53:10;25.50;1.00
11399;DHT22;5755;48.116;11.608;2023-10-13T13:55:37;25.50;2.10
11399;DHT22;5755;48.116;11.608;2023-10-13T13:58:05;25.40;3.10
11399;DHT22;5755;48.116;11.608;2023-10-13T14:00:37;25.30;3.30
11399;DHT22;5755;48.116;11.608;2023-10-13T14:03:06;25.30;2.20
11399;DHT22;5755;48.116;11.608;2023-10-13T14:05:40;25.30;1.70
11399;DHT22;5755;48.116;11.608;2023-10-13T14:08:07;25.30;2.30
11399;DHT22;5755;48.116;11.608;2023-10-13T14:10:37;25.20;3.90
11399;DHT22;5755;48.116;11.608;2023-10-13T14:13:30;25.10;3.00
11399;DHT22;5755;48.116;11.608;2023-10-13T14:16:15;25.10;3.70
11399;DHT22;5755;48.116;11.608;2023-10-13T14:18:46;25.00;3.30
11399;DHT22;5755;48.116;11.608;2023-10-13T14:21:14;25.00;2.60
11399;DHT22;5755;48.116;11.608;2023-10-13T14:23:44;25.00;3.80
11399;DHT22;5755;48.116;11.608;2023-10-13T14:26:13;25.00;4.40
11399;DHT22;5755;48.116;11.608;2023-10-13T14:28:40;25.00;3.80
11399;DHT22;5755;48.116;11.608;2023-10-13T14:31:18;24.90;3.80
11399;DHT22;5755;48.116;11.608;2023-10-13T14:33:46;24.70;4.40
11399;DHT22;5755;48.116;11.608;2023-10-13T14:36:13;24.60;5.10
11399;DHT22;5755;48.116;11.608;2023-10-13T14:38:45;24.50;5.30
11399;DHT22;5755;48.116;11.608;2023-10-13T14:41:15;24.40;5.50
11399;DHT22;5755;48.116;11.608;2023-10-13T14:43:42;24.40;5.80
11399;DHT22;5755;48.116;11.608;2023-10-13T14:46:13;24.30;5.50
11399;DHT22;5755;48.116;11.608;2023-10-13T14:48:42;24.30;6.70
11399;DHT22;5755;48.116;11.608;2023-10-13T14:51:10;24.20;6.50
11399;DHT22;5755;48.116;11.608;2023-10-13T14:53:39;24.10;6.60
11399;DHT22;5755;48.116;11.608;2023-10-13T14:56:10;24.00;6.90
11399;DHT22;5755;48.116;11.608;2023-10-13T14:58:37;23.90;7.30
11399;DHT22;5755;48.116;11.608;2023-10-13T15:01:11;23.80;7.00
11399;DHT22;5755;48.116;11.608;2023-10-13T15:03:42;23.70;6.30
11399;DHT22;5755;48.116;11.608;2023-10-13T15:06:15;23.60;7.00
11399;DHT22;5755;48.116;11.608;2023-10-13T15:08:43;23.50;7.80
11399;DHT22;5755;48.116;11.608;2023-10-13T15:11:11;23.40;7.00
11399;DHT22;5755;48.116;11.608;2023-10-13T15:13:39;23.40;7.20
11399;DHT22;5755;48.116;11.608;2023-10-13T15:16:13;23.30;8.40
11399;DHT22;5755;48.116;11.608;2023-10-13T15:18:44;23.20;8.30
11399;DHT22;5755;48.116;11.608;2023-10-13T15:21:11;23.10;8.00
11399;DHT22;5755;48.116;11.608;2023-10-13T15:23:39;23.00;7.80
11399;DHT22;5755;48.116;11.608;2023-10-13T15:26:09;22.90;7.90
11399;DHT22;5755;48.116;11.608;2023-10-13T15:28:36;22.80;8.30
11399;DHT22;5755;48.116;11.608;2023-10-13T15:31:14;22.80;9.00
11399;DHT22;5755;48.116;11.608;2023-10-13T15:33:54;22.70;11.30
11399;DHT22;5755;48.116;11.608;2023-10-13T15:36:21;22.50;11.60
11399;DHT22;5755;48.116;11.608;2023-10-13T15:38:49;22.40;12.50
11399;DHT22;5755;48.116;11.608;2023-10-13T15:41:27;22.30;12.40
11399;DHT22;5755;48.116;11.608;2023-10-13T15:43:55;22.20;12.40
11399;DHT22;5755;48.116;11.608;2023-10-13T15:46:23;22.10;12.30
11399;DHT22;5755;48.116;11.608;2023-10-13T15:48:52;22.00;12.20
11399;DHT22;5755;48.116;11.608;2023-10-13T15:51:19;21.90;12.20
11399;DHT22;5755;48.116;11.608;2023-10-13T15:53:46;21.80;12.10
11399;DHT22;5755;48.116;11.608;2023-10-13T15:56:14;21.70;12.60
11399;DHT22;5755;48.116;11.608;2023-10-13T15:58:42;21.60;14.10
11399;DHT22;5755;48.116;11.608;2023-10-13T16:01:11;21.50;13.50
11399;DHT22;5755;48.116;11.608;2023-10-13T16:03:39;21.40;14.20
11399;DHT22;5755;48.116;11.608;2023-10-13T16:06:10;21.30;14.10
11399;DHT22;5755;48.116;11.608;2023-10-13T16:08:37;21.20;14.00
11399;DHT22;5755;48.116;11.608;2023-10-13T16:11:05;21.30;14.80
11399;DHT22;5755;48.116;11.608;2023-10-13T16:13:34;21.20;14.90
11399;DHT22;5755;48.116;11.608;2023-10-13T16:16:02;21.10;15.60
11399;DHT22;5755;48.116;11.608;2023-10-13T16:18:29;21.10;15.90
11399;DHT22;5755;48.116;11.608;2023-10-13T16:20:58;21.00;16.50
11399;DHT22;5755;48.116;11.608;2023-10-13T16:23:27;21.00;16.70